Time;durP1;ratioP1;P1;durP2;ratioP2;P2;SDS_P1;SDS_P2;PMS_P1;PMS_P2;Temp;Humidity;BMP_temperature;BMP_pressure;BME280_temperature;BME280_humidity;BME280_pressure;Samples;Min_cycle;Max_cycle;Signal;HPM_P1;HPM_P2
2022/01/16 00:00:56;;;;;;;5.28;3.88;;;;;;;20.94;28.03;100081.28;5109352;28;20507;-63
2022/01/16 00:06:05;;;;;;;4.97;3.75;;;;;;;20.89;27.98;100085.13;5109494;28;20154;-63
2022/01/16 00:08:30;;;;;;;5.75;3.97;;;;;;;20.85;27.78;100090.56;5109613;28;20500;-63
2022/01/16 00:10:56;;;;;;;5.32;3.50;;;;;;;20.85;27.82;100073.91;5109188;28;20062;-63
2022/01/16 00:13:23;;;;;;;5.55;4.00;;;;;;;20.83;28.03;100042.06;5109282;28;20044;-63
2022/01/16 00:15:49;;;;;;;5.22;4.00;;;;;;;20.82;27.98;100044.03;5109481;28;20543;-63
2022/01/16 00:18:26;;;;;;;4.68;3.70;;;;;;;20.79;28.04;100069.00;5090779;28;20039;-63
2022/01/16 00:20:52;;;;;;;5.70;4.13;;;;;;;20.78;27.77;100062.59;5109364;28;20048;-63
2022/01/16 00:23:26;;;;;;;5.25;3.60;;;;;;;20.78;27.67;100047.88;5109420;28;20049;-63
2022/01/16 00:25:54;;;;;;;5.00;3.78;;;;;;;20.78;28.03;100045.91;5094010;28;20098;-63
2022/01/16 00:28:20;;;;;;;5.90;4.22;;;;;;;20.76;28.03;100047.44;5087330;28;20388;-61
2022/01/16 00:30:46;;;;;;;5.47;3.90;;;;;;;20.76;28.01;100089.16;5088892;28;20119;-61
2022/01/16 00:33:12;;;;;;;5.32;4.03;;;;;;;20.74;27.91;100044.22;5088655;28;20519;-62
2022/01/16 00:35:38;;;;;;;4.95;3.63;;;;;;;20.74;28.01;100072.03;5088826;28;20047;-62
2022/01/16 00:38:04;;;;;;;4.75;3.63;;;;;;;20.75;28.08;100085.56;5089039;28;20044;-62
2022/01/16 00:40:30;;;;;;;5.25;4.00;;;;;;;20.73;27.85;100110.16;5089018;28;20127;-62
2022/01/16 00:42:57;;;;;;;5.25;3.97;;;;;;;20.73;27.94;100121.25;5088881;28;20135;-62
2022/01/16 00:45:26;;;;;;;5.10;3.67;;;;;;;20.73;27.80;100112.13;5088991;28;20119;-62
2022/01/16 00:47:52;;;;;;;4.68;3.55;;;;;;;20.71;28.04;100115.22;5088770;28;20047;-59
2022/01/16 00:50:18;;;;;;;4.68;3.53;;;;;;;20.71;27.80;100114.44;5088725;28;20132;-59
2022/01/16 00:52:43;;;;;;;5.45;3.70;;;;;;;20.69;28.04;100122.31;5088754;28;20040;-59
2022/01/16 00:55:10;;;;;;;4.65;3.33;;;;;;;20.69;28.08;100112.00;5088946;28;20044;-58
2022/01/16 00:57:35;;;;;;;4.95;3.95;;;;;;;20.67;27.75;100117.13;5088748;28;20045;-58
2022/01/16 01:00:01;;;;;;;4.75;3.83;;;;;;;20.68;27.98;100073.47;5088586;28;20074;-59
2022/01/16 01:02:26;;;;;;;4.47;3.15;;;;;;;20.68;28.03;100063.13;5088464;28;20421;-58
2022/01/16 01:04:52;;;;;;;4.82;3.78;;;;;;;20.68;28.10;100057.59;5088425;28;20116;-63
2022/01/16 01:07:18;;;;;;;4.30;3.40;;;;;;;20.67;27.79;100041.28;5088617;28;20048;-63
2022/01/16 01:09:43;;;;;;;4.72;3.60;;;;;;;20.68;28.03;100045.66;5088489;28;20101;-63
2022/01/16 01:12:12;;;;;;;4.47;3.38;;;;;;;20.67;28.06;100042.06;5088459;28;20040;-63
2022/01/16 01:14:41;;;;;;;4.60;3.17;;;;;;;20.66;27.92;100081.34;5088400;28;20048;-63
2022/01/16 01:17:10;;;;;;;4.95;3.90;;;;;;;20.66;28.07;100109.97;5088406;28;20052;-63
2022/01/16 01:19:35;;;;;;;4.80;3.38;;;;;;;20.67;28.08;100133.81;5088408;28;20097;-59
2022/01/16 01:22:04;;;;;;;4.63;3.42;;;;;;;20.63;28.02;100119.00;5088521;28;20040;-59
2022/01/16 01:24:31;;;;;;;4.60;3.55;;;;;;;20.65;27.99;100127.81;5088134;28;20047;-59
2022/01/16 01:29:22;;;;;;;4.38;3.10;;;;;;;20.65;27.98;100152.81;5092002;28;20048;-59
2022/01/16 01:31:51;;;;;;;4.85;3.35;;;;;;;20.64;27.90;100172.59;5092038;28;20036;-59
2022/01/16 01:34:17;;;;;;;4.50;3.30;;;;;;;20.64;28.04;100150.38;5091656;28;20028;-59
2022/01/16 01:36:47;;;;;;;4.10;3.20;;;;;;;20.63;28.10;100140.41;5091680;28;20044;-59
2022/01/16 01:39:13;;;;;;;4.47;3.13;;;;;;;20.62;27.87;100147.97;5091766;28;20509;-59
2022/01/16 01:41:38;;;;;;;3.75;2.75;;;;;;;20.61;27.75;100168.56;5091834;28;20448;-59
2022/01/16 01:52:16;;;;;;;4.45;3.30;;;;;;;20.61;27.84;100213.84;5091312;28;20087;-58
2022/01/16 01:54:42;;;;;;;4.10;2.92;;;;;;;20.58;28.10;100203.47;5091292;28;20048;-62
2022/01/16 01:57:07;;;;;;;3.85;3.00;;;;;;;20.59;28.08;100205.06;5091518;28;20059;-58
2022/01/16 01:59:33;;;;;;;4.10;2.90;;;;;;;20.59;27.98;100193.97;5091519;28;20468;-62
2022/01/16 02:01:58;;;;;;;3.80;2.83;;;;;;;20.59;27.82;100198.72;5090006;28;20047;-62
2022/01/16 02:04:24;;;;;;;3.97;2.90;;;;;;;20.59;28.15;100195.94;5091238;28;20817;-62
2022/01/16 02:06:49;;;;;;;3.92;2.63;;;;;;;20.58;27.96;100197.09;5091056;28;20048;-62
2022/01/16 02:09:14;;;;;;;4.18;3.00;;;;;;;20.58;27.77;100199.88;5091064;28;20036;-62
2022/01/16 02:11:40;;;;;;;4.15;2.90;;;;;;;20.59;27.85;100187.59;5091107;28;20102;-62
2022/01/16 02:35:39;;;;;;;4.07;2.75;;;;;;;20.53;27.78;100191.78;5090910;28;20165;-59
2022/01/16 02:38:06;;;;;;;4.22;2.80;;;;;;;20.51;27.72;100183.00;5087333;28;20094;-59
2022/01/16 02:40:32;;;;;;;4.03;3.00;;;;;;;20.52;27.95;100185.41;5090770;28;20063;-59
2022/01/16 02:42:57;;;;;;;4.10;2.80;;;;;;;20.54;27.72;100187.84;5090269;28;20079;-59
2022/01/16 02:45:29;;;;;;;4.03;3.00;;;;;;;20.51;27.83;100180.22;5090228;28;20074;-59
2022/01/16 02:48:01;;;;;;;4.65;2.83;;;;;;;20.52;27.78;100182.63;5088931;28;20040;-59
2022/01/16 02:50:28;;;;;;;4.05;2.97;;;;;;;20.52;27.61;100184.63;5090206;28;20507;-62
2022/01/16 02:52:53;;;;;;;3.72;2.80;;;;;;;20.52;27.83;100185.41;5090188;28;20409;-62
2022/01/16 02:55:21;;;;;;;3.85;2.63;;;;;;;20.53;27.74;100175.09;5089948;28;20101;-62
2022/01/16 02:57:49;;;;;;;4.15;2.80;;;;;;;20.52;27.83;100176.28;5089887;28;20040;-62
2022/01/16 03:00:16;;;;;;;3.75;2.50;;;;;;;20.52;27.61;100181.84;5090470;28;20496;-62
2022/01/16 03:02:42;;;;;;;3.78;2.70;;;;;;;20.53;27.80;100170.34;5090236;28;20048;-59
2022/01/16 03:05:08;;;;;;;4.97;2.95;;;;;;;20.96;27.12;100167.94;5090252;28;20109;-59
2022/01/16 03:07:34;;;;;;;4.75;3.22;;;;;;;21.91;25.81;100163.91;5090289;28;20040;-59
2022/01/16 03:12:49;;;;;;;4.57;2.70;;;;;;;22.91;24.99;100170.75;5090046;28;20082;-59
2022/01/16 03:15:15;;;;;;;3.63;2.67;;;;;;;22.67;25.29;100167.09;5089990;28;20511;-59
2022/01/16 03:23:15;;;;;;;4.65;2.75;;;;;;;21.93;26.10;100150.44;5089630;28;20067;-59
2022/01/16 03:25:41;;;;;;;3.58;2.40;;;;;;;21.76;26.13;100156.41;5089837;28;20420;-59
2022/01/16 03:28:06;;;;;;;3.60;2.70;;;;;;;21.62;26.43;100158.84;5089965;28;20040;-59
2022/01/16 03:30:32;;;;;;;3.40;2.28;;;;;;;21.50;26.45;100158.94;5089722;28;20448;-63
2022/01/16 03:32:57;;;;;;;3.35;2.47;;;;;;;21.41;26.42;100156.38;5089859;28;20074;-63
2022/01/16 03:35:23;;;;;;;3.70;2.80;;;;;;;21.32;26.87;100152.97;5089654;28;20055;-63
2022/01/16 03:37:48;;;;;;;4.00;3.08;;;;;;;21.24;26.66;100151.97;5089667;28;20052;-63
2022/01/16 03:40:14;;;;;;;3.88;2.80;;;;;;;21.17;26.92;100165.69;5089575;28;20051;-63
2022/01/16 03:42:41;;;;;;;3.63;2.50;;;;;;;21.11;26.72;100162.38;5089342;28;20044;-63
2022/01/16 03:45:08;;;;;;;4.00;2.70;;;;;;;21.06;27.03;100156.25;5089510;28;20044;-63
2022/01/16 03:47:35;;;;;;;3.33;2.58;;;;;;;21.02;27.10;100166.50;5089656;28;20032;-63
2022/01/16 03:50:02;;;;;;;4.70;2.92;;;;;;;20.97;26.86;100169.53;5088888;28;20051;-63
2022/01/16 03:52:27;;;;;;;4.07;2.65;;;;;;;20.93;27.36;100165.84;5089364;28;20077;-63
2022/01/16 03:54:52;;;;;;;4.50;2.80;;;;;;;20.89;27.16;100172.13;5089545;28;20045;-63
2022/01/16 03:57:18;;;;;;;4.20;2.50;;;;;;;20.85;27.22;100175.97;5089440;28;20051;-63
2022/01/16 03:59:44;;;;;;;4.18;2.95;;;;;;;20.82;27.29;100177.50;5089483;28;20439;-63
2022/01/16 04:02:09;;;;;;;3.33;2.28;;;;;;;20.78;27.28;100184.94;5089244;28;20059;-63
2022/01/16 04:04:35;;;;;;;4.00;2.95;;;;;;;20.84;27.27;100183.50;5089112;28;20058;-63
2022/01/16 04:07:01;;;;;;;3.63;2.78;;;;;;;21.23;26.69;100180.97;5089319;28;20118;-64
2022/01/16 04:09:27;;;;;;;3.97;2.95;;;;;;;21.80;26.08;100185.16;5089055;28;20073;-61
2022/01/16 04:11:55;;;;;;;3.80;2.65;;;;;;;22.71;24.87;100190.25;5089744;28;20051;-62
2022/01/16 04:17:06;;;;;;;3.83;2.63;;;;;;;22.72;24.93;100185.53;5087245;28;20074;-58
2022/01/16 04:19:31;;;;;;;3.45;2.35;;;;;;;22.47;25.10;100188.59;5089303;28;20032;-58
2022/01/16 04:21:57;;;;;;;4.47;3.03;;;;;;;22.26;25.28;100190.94;5089106;28;20064;-58
2022/01/16 04:24:22;;;;;;;3.53;2.55;;;;;;;22.06;25.49;100192.06;5089031;28;20135;-59
2022/01/16 04:26:48;;;;;;;4.07;2.80;;;;;;;21.87;25.99;100179.72;5089039;28;20085;-59
2022/01/16 04:29:13;;;;;;;2.85;2.20;;;;;;;21.73;26.29;100182.19;5088735;28;20280;-59
2022/01/16 04:31:38;;;;;;;3.47;2.50;;;;;;;21.60;26.25;100178.72;5088501;28;20139;-59
2022/01/16 04:34:04;;;;;;;3.60;2.70;;;;;;;21.50;26.17;100176.47;5088603;28;20048;-59
2022/01/16 04:36:29;;;;;;;3.50;2.63;;;;;;;21.40;26.46;100177.81;5088811;28;20492;-59
2022/01/16 04:38:55;;;;;;;3.70;2.50;;;;;;;21.33;26.61;100176.84;5088726;28;20036;-59
2022/01/16 04:44:04;;;;;;;3.47;2.60;;;;;;;21.18;26.56;100184.00;5088810;28;20136;-59
2022/01/16 04:46:32;;;;;;;3.85;2.78;;;;;;;21.12;26.71;100183.44;5088681;28;20131;-59
2022/01/16 04:48:59;;;;;;;4.13;2.67;;;;;;;21.06;26.87;100184.06;5088490;28;20044;-59
2022/01/16 04:51:25;;;;;;;4.30;2.97;;;;;;;21.02;26.89;100183.19;5088515;28;20435;-59
2022/01/16 04:53:51;;;;;;;4.25;3.13;;;;;;;20.99;27.19;100190.25;5088550;28;20044;-59
2022/01/16 04:56:17;;;;;;;3.58;2.63;;;;;;;20.94;27.08;100184.97;5088484;28;20071;-59
2022/01/16 04:58:42;;;;;;;4.03;2.80;;;;;;;20.92;26.88;100189.25;5088434;28;20381;-59
2022/01/16 05:01:09;;;;;;;3.85;2.80;;;;;;;20.89;26.99;100188.00;5089986;28;20051;-59
2022/01/16 05:03:35;;;;;;;4.18;2.90;;;;;;;20.86;26.93;100191.50;5092026;28;20079;-59
2022/01/16 05:06:02;;;;;;;3.83;2.88;;;;;;;20.83;27.04;100198.56;5092248;28;20380;-59
2022/01/16 05:08:28;;;;;;;4.22;3.05;;;;;;;20.79;27.14;100186.56;5092165;28;20450;-58
2022/01/16 05:10:55;;;;;;;3.90;2.78;;;;;;;20.78;27.11;100190.47;5092234;28;20048;-59
2022/01/16 05:18:40;;;;;;;3.63;2.53;;;;;;;20.73;27.17;100218.56;5091795;28;20051;-59
2022/01/16 05:21:06;;;;;;;3.65;2.78;;;;;;;20.69;27.03;100220.44;5091962;28;20044;-62
2022/01/16 05:23:31;;;;;;;3.67;2.90;;;;;;;20.71;27.02;100228.41;5091878;28;20055;-62
2022/01/16 05:25:57;;;;;;;3.75;2.78;;;;;;;20.69;27.10;100239.88;5091782;28;20044;-62
2022/01/16 05:28:23;;;;;;;3.85;2.70;;;;;;;20.68;27.32;100241.06;5091373;28;20044;-62
2022/01/16 05:30:48;;;;;;;3.92;2.70;;;;;;;20.67;27.20;100246.97;5091262;28;20066;-62
2022/01/16 05:33:14;;;;;;;3.50;2.65;;;;;;;20.67;27.33;100258.91;5091380;28;20044;-62
2022/01/16 05:35:40;;;;;;;3.78;2.60;;;;;;;20.66;27.18;100262.03;5129171;28;20077;-62
2022/01/16 05:38:05;;;;;;;3.65;2.47;;;;;;;20.64;27.06;100264.34;5132281;28;20046;-62
2022/01/16 05:40:31;;;;;;;3.97;2.90;;;;;;;20.64;27.15;100264.34;5132302;28;20482;-62
2022/01/16 05:42:58;;;;;;;3.67;2.78;;;;;;;20.60;27.17;100261.47;5132278;28;20410;-62
2022/01/16 05:45:24;;;;;;;4.10;2.78;;;;;;;20.63;27.12;100268.28;5132173;28;20667;-62
2022/01/16 05:47:49;;;;;;;3.55;2.50;;;;;;;20.62;27.23;100273.03;5132464;28;20042;-62
2022/01/16 05:50:15;;;;;;;4.57;3.10;;;;;;;20.61;27.22;100280.56;5132137;28;20533;-62
2022/01/16 05:52:40;;;;;;;3.92;2.55;;;;;;;20.60;27.09;100287.28;5131272;28;20191;-63
2022/01/16 05:55:07;;;;;;;3.53;2.65;;;;;;;20.59;27.28;100298.78;5132366;27;20043;-62
2022/01/16 05:57:32;;;;;;;3.72;2.75;;;;;;;20.59;26.95;100293.22;5132104;27;20043;-62
2022/01/16 05:59:58;;;;;;;4.78;3.05;;;;;;;20.57;27.09;100301.91;5132229;27;20070;-59
2022/01/16 06:02:25;;;;;;;4.03;2.85;;;;;;;20.57;27.12;100313.03;5131883;27;20043;-59
2022/01/16 06:04:51;;;;;;;3.80;2.78;;;;;;;20.57;27.10;100306.63;5132081;27;20043;-59
2022/01/16 06:07:17;;;;;;;3.58;2.70;;;;;;;20.56;27.29;100313.34;5132137;27;20035;-59
2022/01/16 06:09:42;;;;;;;4.13;2.88;;;;;;;20.56;27.21;100314.16;5132200;27;20036;-59
2022/01/16 06:12:08;;;;;;;3.50;2.42;;;;;;;20.55;27.00;100315.31;5131527;27;20031;-59
2022/01/16 06:14:34;;;;;;;4.15;2.72;;;;;;;20.55;27.04;100314.50;5131906;28;20468;-59
2022/01/16 06:16:59;;;;;;;3.65;2.60;;;;;;;20.53;27.09;100317.66;5131907;27;20046;-59
2022/01/16 06:19:25;;;;;;;3.45;2.65;;;;;;;20.53;27.09;100312.09;5131801;28;20046;-59
2022/01/16 06:21:50;;;;;;;3.55;2.53;;;;;;;20.52;26.99;100321.59;5131679;28;20066;-58
2022/01/16 06:24:16;;;;;;;3.95;2.70;;;;;;;20.53;27.21;100325.19;5131633;28;20074;-62
2022/01/16 06:26:42;;;;;;;3.45;2.50;;;;;;;20.50;27.00;100326.72;5131777;27;20134;-62
2022/01/16 06:29:08;;;;;;;4.38;2.88;;;;;;;20.50;27.15;100334.22;5131783;27;20039;-62
2022/01/16 06:31:33;;;;;;;3.50;2.70;;;;;;;20.52;27.17;100348.59;5131657;27;20044;-62
2022/01/16 06:34:00;;;;;;;4.07;2.70;;;;;;;20.51;27.02;100342.22;5130859;27;20096;-62
2022/01/16 06:36:26;;;;;;;4.45;2.65;;;;;;;20.51;27.02;100346.97;5131357;27;20130;-62
2022/01/16 06:38:53;;;;;;;3.42;2.60;;;;;;;20.50;27.12;100350.88;5131394;27;20135;-62
2022/01/16 06:41:19;;;;;;;3.80;2.65;;;;;;;20.49;27.10;100360.38;5131385;27;20073;-62
2022/01/16 06:43:44;;;;;;;3.35;2.45;;;;;;;20.47;27.08;100357.97;5131060;27;20131;-58
2022/01/16 06:46:10;;;;;;;3.83;2.63;;;;;;;20.49;27.07;100366.75;5129483;28;20065;-58
2022/01/16 06:48:36;;;;;;;4.75;2.88;;;;;;;20.49;27.16;100363.16;5131516;28;20380;-59
2022/01/16 06:51:02;;;;;;;3.92;3.00;;;;;;;20.48;26.87;100358.75;5131266;27;20074;-63
2022/01/16 06:53:27;;;;;;;4.00;2.90;;;;;;;20.48;27.21;100369.88;5131453;27;20051;-63
2022/01/16 06:55:53;;;;;;;4.65;3.00;;;;;;;20.46;27.15;100373.03;5131211;28;20092;-63
2022/01/16 06:58:18;;;;;;;3.70;2.67;;;;;;;20.43;26.98;100379.25;5131090;28;20448;-63
2022/01/16 07:00:44;;;;;;;4.35;3.10;;;;;;;20.47;26.86;100384.94;5131106;28;20047;-63
2022/01/16 07:03:09;;;;;;;3.92;2.83;;;;;;;20.46;26.97;100402.78;5131042;28;20039;-63
2022/01/16 07:05:35;;;;;;;4.38;2.67;;;;;;;20.46;27.05;100411.91;5131080;28;20047;-63
2022/01/16 07:08:00;;;;;;;4.43;2.88;;;;;;;20.45;27.09;100415.88;5130680;27;20077;-63
2022/01/16 07:10:26;;;;;;;4.55;3.28;;;;;;;20.45;26.93;100410.31;5130903;28;20711;-63
2022/01/16 07:12:51;;;;;;;4.35;3.25;;;;;;;20.44;26.94;100410.63;5130696;27;20074;-63
2022/01/16 07:15:17;;;;;;;3.97;2.95;;;;;;;20.44;26.99;100399.50;5130672;27;20394;-63
2022/01/16 07:17:43;;;;;;;3.85;2.90;;;;;;;20.44;26.94;100408.69;5130823;28;20043;-63
2022/01/16 07:20:09;;;;;;;4.90;3.42;;;;;;;20.42;26.84;100410.97;5130748;27;20054;-63
2022/01/16 07:22:34;;;;;;;4.32;3.13;;;;;;;20.43;26.94;100408.97;5131172;27;20430;-63
2022/01/16 07:24:59;;;;;;;4.68;3.30;;;;;;;20.43;26.92;100407.03;5129828;27;20031;-63
2022/01/16 07:27:25;;;;;;;3.97;2.85;;;;;;;20.43;26.97;100411.75;5130756;28;20112;-63
2022/01/16 07:29:51;;;;;;;4.63;3.30;;;;;;;20.43;26.96;100417.31;5130614;28;20063;-63
2022/01/16 07:32:16;;;;;;;4.55;3.28;;;;;;;20.42;26.96;100410.16;5130704;28;20068;-63
2022/01/16 07:34:41;;;;;;;4.55;3.38;;;;;;;20.43;26.82;100411.75;5130439;27;20445;-63
2022/01/16 07:37:07;;;;;;;3.75;2.80;;;;;;;20.40;26.90;100406.91;5130062;27;20054;-63
2022/01/16 07:39:32;;;;;;;4.75;3.38;;;;;;;20.42;26.83;100399.03;5130308;27;20066;-63
2022/01/16 07:41:58;;;;;;;4.53;3.08;;;;;;;20.41;26.97;100397.41;5130432;27;20067;-63
2022/01/16 07:44:23;;;;;;;3.70;3.00;;;;;;;20.40;26.79;100401.34;5130440;27;20039;-63
2022/01/16 07:46:49;;;;;;;4.72;3.30;;;;;;;20.39;27.03;100400.56;5130614;27;20071;-63
2022/01/16 07:49:14;;;;;;;4.50;3.25;;;;;;;20.39;26.92;100383.88;5130689;28;20418;-62
2022/01/16 07:51:40;;;;;;;4.55;3.10;;;;;;;20.38;26.90;100373.94;5130021;27;20065;-61
2022/01/16 07:54:05;;;;;;;5.03;3.67;;;;;;;20.38;26.88;100375.91;5130037;28;20071;-61
2022/01/16 07:56:30;;;;;;;4.30;2.85;;;;;;;20.39;26.97;100391.41;5129866;28;20051;-61
2022/01/16 07:58:56;;;;;;;4.45;3.35;;;;;;;20.40;26.86;100387.47;5129966;28;20053;-62
2022/01/16 08:01:22;;;;;;;4.85;3.30;;;;;;;20.39;26.77;100388.63;5130011;28;20395;-63
2022/01/16 08:03:47;;;;;;;4.90;3.40;;;;;;;20.38;26.74;100398.94;5130119;28;20039;-63
2022/01/16 08:06:15;;;;;;;4.95;3.50;;;;;;;20.58;26.70;100400.00;5129983;28;20093;-63
2022/01/16 08:08:41;;;;;;;4.40;3.38;;;;;;;21.14;25.94;100402.84;5130210;27;20103;-63
2022/01/16 08:11:09;;;;;;;4.85;3.65;;;;;;;21.97;25.16;100395.63;5130079;28;20047;-62
2022/01/16 08:13:35;;;;;;;4.75;3.47;;;;;;;22.82;24.20;100396.91;5126112;27;20479;-63
2022/01/16 08:16:03;;;;;;;4.80;3.55;;;;;;;22.74;24.19;100404.31;5129933;28;20104;-63
2022/01/16 08:18:29;;;;;;;4.88;3.50;;;;;;;22.51;24.35;100401.38;5129834;28;20584;-62
2022/01/16 08:20:54;;;;;;;4.30;3.15;;;;;;;22.29;24.58;100407.63;5129859;28;20049;-62
2022/01/16 08:23:20;;;;;;;4.30;3.17;;;;;;;22.05;24.98;100410.53;5129783;28;20050;-62
2022/01/16 08:25:45;;;;;;;3.92;3.00;;;;;;;21.83;25.32;100412.78;5130073;28;20410;-62
2022/01/16 08:28:11;;;;;;;4.90;3.45;;;;;;;21.69;25.48;100426.31;5129657;28;20460;-62
2022/01/16 08:30:36;;;;;;;4.80;3.55;;;;;;;21.55;25.59;100426.72;5129837;28;20525;-62
2022/01/16 08:33:01;;;;;;;4.43;3.20;;;;;;;21.42;25.55;100428.75;5129905;28;20134;-62
2022/01/16 08:35:27;;;;;;;4.90;3.35;;;;;;;21.31;25.64;100430.44;5129753;27;20468;-63
2022/01/16 08:37:52;;;;;;;5.00;3.50;;;;;;;21.23;25.93;100436.13;5130005;28;20075;-63
2022/01/16 08:40:18;;;;;;;5.03;3.58;;;;;;;21.13;26.06;100434.63;5129981;28;20456;-63
2022/01/16 08:42:43;;;;;;;5.25;3.58;;;;;;;21.09;26.33;100442.06;5129730;28;20400;-63
2022/01/16 08:45:09;;;;;;;5.07;3.90;;;;;;;21.03;26.08;100437.91;5129721;28;20053;-63
2022/01/16 08:47:35;;;;;;;4.47;3.30;;;;;;;20.97;26.25;100431.78;5129679;28;20078;-63
2022/01/16 08:50:04;;;;;;;4.88;3.83;;;;;;;20.93;26.37;100436.41;5129793;28;20040;-63
2022/01/16 08:52:30;;;;;;;5.57;3.80;;;;;;;20.89;26.22;100441.06;5129472;28;20090;-63
2022/01/16 08:54:55;;;;;;;6.15;3.78;;;;;;;20.84;26.42;100444.88;5129612;28;20455;-63
2022/01/16 08:57:21;;;;;;;5.30;3.95;;;;;;;20.81;26.34;100439.22;5129709;28;20537;-63
2022/01/16 08:59:46;;;;;;;4.78;3.63;;;;;;;20.77;26.38;100441.88;5129683;28;20028;-63
2022/01/16 09:02:11;;;;;;;5.15;3.83;;;;;;;20.77;26.26;100450.22;5129543;28;20407;-63
2022/01/16 09:04:37;;;;;;;5.32;3.90;;;;;;;20.74;26.41;100436.22;5129394;28;20097;-59
2022/01/16 09:07:02;;;;;;;4.50;3.47;;;;;;;20.72;26.56;100438.56;5129349;28;20040;-59
2022/01/16 09:09:30;;;;;;;5.10;3.72;;;;;;;20.69;26.56;100434.47;5129400;28;20051;-59
2022/01/16 09:11:55;;;;;;;4.70;3.70;;;;;;;20.68;26.49;100445.97;5125122;28;20522;-59
2022/01/16 09:14:20;;;;;;;5.00;3.67;;;;;;;20.66;26.36;100449.09;5129089;28;20035;-63
2022/01/16 09:16:46;;;;;;;5.18;3.70;;;;;;;20.67;26.62;100449.91;5129255;28;20039;-63
2022/01/16 09:19:11;;;;;;;5.47;3.95;;;;;;;20.64;26.53;100451.38;5129400;28;20035;-60
2022/01/16 09:21:37;;;;;;;5.53;4.05;;;;;;;20.64;26.51;100450.59;5129151;28;20054;-59
2022/01/16 09:24:03;;;;;;;4.60;3.58;;;;;;;20.60;26.46;100456.84;5129029;28;20047;-59
2022/01/16 09:26:28;;;;;;;5.13;4.05;;;;;;;20.62;26.42;100456.50;5129334;28;20047;-59
2022/01/16 09:28:54;;;;;;;4.90;3.80;;;;;;;20.59;26.35;100466.34;5129315;28;20049;-59
2022/01/16 09:31:20;;;;;;;5.03;3.85;;;;;;;20.60;26.55;100458.81;5128980;28;20049;-59
2022/01/16 09:33:45;;;;;;;5.18;3.83;;;;;;;20.56;26.48;100466.22;5129063;28;20107;-59
2022/01/16 09:36:13;;;;;;;5.07;3.85;;;;;;;20.58;26.51;100469.50;5128913;28;20682;-59
2022/01/16 09:38:39;;;;;;;4.88;3.55;;;;;;;20.58;26.78;100461.97;5128560;28;20460;-59
2022/01/16 09:41:05;;;;;;;5.28;4.05;;;;;;;20.57;26.70;100463.13;5128960;28;20047;-58
2022/01/16 09:43:35;;;;;;;5.22;4.00;;;;;;;20.56;26.84;100472.59;5128676;28;20061;-59
2022/01/16 09:46:01;;;;;;;5.10;3.95;;;;;;;20.57;26.60;100485.34;5128600;27;20044;-62
2022/01/16 09:48:26;;;;;;;5.28;4.22;;;;;;;20.58;26.81;100483.38;5131914;28;20047;-62
2022/01/16 09:50:52;;;;;;;5.47;3.85;;;;;;;20.57;26.73;100478.97;5132203;28;20400;-62
2022/01/16 09:53:17;;;;;;;5.07;4.13;;;;;;;20.58;26.65;100483.38;5132318;28;20410;-62
2022/01/16 09:55:43;;;;;;;4.57;3.80;;;;;;;20.57;26.75;100487.28;5132176;28;20035;-62
2022/01/16 09:58:08;;;;;;;5.00;3.90;;;;;;;20.56;26.61;100478.16;5132210;28;20050;-63
2022/01/16 10:00:34;;;;;;;5.43;3.95;;;;;;;20.57;26.93;100487.28;5132122;28;20091;-62
2022/01/16 10:03:00;;;;;;;4.95;3.78;;;;;;;20.56;26.86;100492.03;5132060;28;20071;-62
2022/01/16 10:05:25;;;;;;;5.57;3.90;;;;;;;20.57;26.78;100496.47;5131723;28;20043;-62
2022/01/16 10:07:53;;;;;;;5.18;3.97;;;;;;;20.57;26.99;100492.84;5131649;28;20039;-62
2022/01/16 10:10:23;;;;;;;5.00;3.80;;;;;;;20.57;26.69;100498.41;5131863;28;20047;-62
2022/01/16 10:12:54;;;;;;;5.63;3.90;;;;;;;20.57;26.84;100490.91;5131741;28;20562;-62
2022/01/16 10:15:27;;;;;;;5.35;3.65;;;;;;;20.57;26.96;100490.06;5131548;28;20134;-62
2022/01/16 10:17:56;;;;;;;4.88;3.72;;;;;;;20.57;27.03;100484.50;5131670;28;20522;-63
2022/01/16 10:20:22;;;;;;;5.20;3.78;;;;;;;20.56;27.04;100485.69;5131234;28;20584;-63
2022/01/16 10:22:51;;;;;;;4.90;3.60;;;;;;;20.57;26.90;100495.63;5131317;28;20134;-63
2022/01/16 10:25:35;;;;;;;4.65;3.83;;;;;;;20.57;26.94;100493.69;5131384;28;20326;-63
2022/01/16 10:28:04;;;;;;;4.20;3.50;;;;;;;20.59;26.95;100487.78;5131476;28;20125;-63
2022/01/16 10:30:41;;;;;;;4.38;3.60;;;;;;;20.57;26.89;100478.97;5131368;28;20040;-63
2022/01/16 10:33:12;;;;;;;5.60;3.80;;;;;;;20.59;27.09;100482.22;5131714;28;20084;-63
2022/01/16 10:35:38;;;;;;;4.47;3.70;;;;;;;20.58;27.08;100484.19;5131626;28;20047;-63
2022/01/16 10:38:03;;;;;;;5.38;4.53;;;;;;;20.89;26.49;100477.22;5131370;28;20050;-63
2022/01/16 10:40:36;;;;;;;5.15;4.10;;;;;;;21.90;25.57;100471.47;5131561;28;20043;-63
2022/01/16 10:43:06;;;;;;;5.82;4.35;;;;;;;22.87;24.37;100477.56;5131276;28;20565;-63
2022/01/16 10:45:33;;;;;;;5.43;4.30;;;;;;;22.87;24.43;100468.38;5131322;28;20466;-63
2022/01/16 10:48:03;;;;;;;4.75;3.67;;;;;;;22.64;24.64;100468.19;5131287;28;20047;-63
2022/01/16 10:50:35;;;;;;;4.70;3.53;;;;;;;22.41;24.88;100470.81;5131233;28;20047;-63
2022/01/16 10:53:03;;;;;;;4.80;3.70;;;;;;;22.20;25.15;100466.31;5131288;28;20047;-63
2022/01/16 10:55:44;;;;;;;4.93;3.72;;;;;;;21.98;25.49;100452.97;5131193;28;20039;-63
2022/01/16 10:58:13;;;;;;;4.95;3.83;;;;;;;21.83;25.47;100457.34;5130085;27;20380;-63
2022/01/16 11:00:42;;;;;;;4.30;3.67;;;;;;;21.69;25.60;100457.75;5131106;28;20187;-63
2022/01/16 11:03:09;;;;;;;4.60;3.80;;;;;;;21.59;25.96;100457.47;5130926;28;20126;-63
2022/01/16 11:05:41;;;;;;;4.32;3.53;;;;;;;21.50;26.00;100456.78;5130784;28;20035;-63
2022/01/16 11:08:11;;;;;;;4.63;3.58;;;;;;;21.42;26.06;100447.44;5130690;28;20495;-63
2022/01/16 11:10:39;;;;;;;5.88;4.30;;;;;;;21.35;26.40;100447.22;5130777;28;20069;-63
2022/01/16 11:13:13;;;;;;;5.70;4.10;;;;;;;21.30;26.27;100451.09;5130566;28;20047;-63
2022/01/16 11:15:41;;;;;;;4.88;3.70;;;;;;;21.27;26.31;100450.94;5130703;28;20085;-63
2022/01/16 11:18:09;;;;;;;5.25;3.92;;;;;;;21.22;26.63;100449.22;5130601;28;20047;-63
2022/01/16 11:20:37;;;;;;;4.72;3.60;;;;;;;21.18;26.67;100439.94;5130410;28;20055;-59
2022/01/16 11:25:56;;;;;;;5.20;3.72;;;;;;;21.12;26.66;100444.94;5088103;28;20047;-59
2022/01/16 11:28:23;;;;;;;5.15;4.20;;;;;;;21.11;26.66;100448.09;5130467;28;20055;-63
2022/01/16 11:30:55;;;;;;;4.78;3.60;;;;;;;21.08;26.83;100443.25;5130171;28;20147;-63
2022/01/16 11:33:27;;;;;;;4.68;3.80;;;;;;;21.08;27.10;100446.03;5130094;28;20108;-63
2022/01/16 11:35:59;;;;;;;4.68;3.65;;;;;;;21.06;26.93;100446.34;5130244;28;20093;-63
2022/01/16 11:38:35;;;;;;;4.60;3.42;;;;;;;21.04;26.86;100439.53;5130284;28;20054;-63
2022/01/16 11:41:19;;;;;;;4.45;3.33;;;;;;;21.01;26.76;100429.91;5130243;28;20130;-63
2022/01/16 11:43:54;;;;;;;4.65;3.55;;;;;;;21.02;27.04;100439.06;5126509;28;20122;-63
2022/01/16 11:46:21;;;;;;;4.53;3.72;;;;;;;21.01;26.89;100445.81;5130120;28;20122;-63
2022/01/16 11:48:49;;;;;;;5.00;3.72;;;;;;;21.00;26.97;100436.63;5129955;28;20035;-63
2022/01/16 11:51:35;;;;;;;4.70;3.60;;;;;;;20.99;26.99;100435.00;5130050;28;20498;-63
2022/01/16 11:54:01;;;;;;;5.13;3.92;;;;;;;20.99;27.08;100426.66;5129935;28;20042;-59
2022/01/16 11:56:41;;;;;;;5.03;3.75;;;;;;;20.99;27.11;100423.06;5129717;28;20040;-59
2022/01/16 11:59:15;;;;;;;5.25;3.92;;;;;;;20.99;27.20;100423.88;5129998;28;20043;-59
2022/01/16 12:01:42;;;;;;;5.70;4.13;;;;;;;20.98;27.11;100424.25;5129900;28;20126;-59
2022/01/16 12:04:30;;;;;;;4.97;3.78;;;;;;;20.98;27.07;100421.47;5129612;28;20043;-59
2022/01/16 12:06:59;;;;;;;4.82;3.60;;;;;;;20.99;27.12;100406.38;5129682;28;20487;-59
2022/01/16 12:09:34;;;;;;;4.40;3.58;;;;;;;20.99;27.34;100406.38;5129258;27;20089;-59
2022/01/16 12:12:00;;;;;;;4.53;3.75;;;;;;;21.00;27.14;100399.66;5129590;28;20051;-59
2022/01/16 12:14:47;;;;;;;4.80;3.60;;;;;;;20.99;27.37;100389.69;5129558;28;20035;-59
2022/01/16 12:17:26;;;;;;;5.57;3.75;;;;;;;20.98;27.29;100388.88;5129789;28;20051;-59
2022/01/16 12:19:52;;;;;;;5.15;3.65;;;;;;;20.97;27.15;100383.69;5129647;28;20114;-59